sensor_id;sensor_type;location;lat;lon;timestamp;P1;durP1;ratioP1;P2;durP2;ratioP2
30215;SDS011;17028;47.642;8.070;2022-10-22T00:04:46;1.02;;;0.60;;
30215;SDS011;17028;47.642;8.070;2022-10-22T00:09:48;1.35;;;0.73;;
30215;SDS011;17028;47.642;8.070;2022-10-22T00:14:49;1.77;;;0.95;;
30215;SDS011;17028;47.642;8.070;2022-10-22T00:19:50;0.98;;;0.60;;
30215;SDS011;17028;47.642;8.070;2022-10-22T00:24:51;1.08;;;0.50;;
30215;SDS011;17028;47.642;8.070;2022-10-22T00:29:52;0.98;;;0.60;;
30215;SDS011;17028;47.642;8.070;2022-10-22T00:34:53;0.32;;;0.30;;
30215;SDS011;17028;47.642;8.070;2022-10-22T00:39:54;0.40;;;0.30;;
30215;SDS011;17028;47.642;8.070;2022-10-22T00:45:05;0.40;;;0.40;;
30215;SDS011;17028;47.642;8.070;2022-10-22T00:50:20;0.75;;;0.40;;
30215;SDS011;17028;47.642;8.070;2022-10-22T00:55:34;0.30;;;0.30;;
30215;SDS011;17028;47.642;8.070;2022-10-22T01:00:35;0.20;;;0.20;;
30215;SDS011;17028;47.642;8.070;2022-10-22T01:05:42;0.60;;;0.40;;
30215;SDS011;17028;47.642;8.070;2022-10-22T01:16:07;0.70;;;0.50;;
30215;SDS011;17028;47.642;8.070;2022-10-22T01:26:36;0.95;;;0.60;;
30215;SDS011;17028;47.642;8.070;2022-10-22T01:31:51;0.47;;;0.40;;
30215;SDS011;17028;47.642;8.070;2022-10-22T01:37:07;0.93;;;0.63;;
30215;SDS011;17028;47.642;8.070;2022-10-22T01:42:11;0.90;;;0.52;;
30215;SDS011;17028;47.642;8.070;2022-10-22T01:58:04;0.75;;;0.60;;
30215;SDS011;17028;47.642;8.070;2022-10-22T02:03:28;0.68;;;0.50;;
30215;SDS011;17028;47.642;8.070;2022-10-22T02:08:34;1.13;;;0.70;;
30215;SDS011;17028;47.642;8.070;2022-10-22T02:13:39;0.40;;;0.40;;
30215;SDS011;17028;47.642;8.070;2022-10-22T02:18:45;1.10;;;0.70;;
30215;SDS011;17028;47.642;8.070;2022-10-22T02:23:49;0.60;;;0.60;;
30215;SDS011;17028;47.642;8.070;2022-10-22T02:28:55;0.57;;;0.50;;
30215;SDS011;17028;47.642;8.070;2022-10-22T02:34:26;0.60;;;0.50;;
30215;SDS011;17028;47.642;8.070;2022-10-22T02:39:31;0.37;;;0.37;;
30215;SDS011;17028;47.642;8.070;2022-10-22T02:44:32;0.52;;;0.50;;
30215;SDS011;17028;47.642;8.070;2022-10-22T02:49:33;0.73;;;0.50;;
30215;SDS011;17028;47.642;8.070;2022-10-22T02:54:34;1.05;;;0.75;;
30215;SDS011;17028;47.642;8.070;2022-10-22T02:59:36;0.77;;;0.70;;
30215;SDS011;17028;47.642;8.070;2022-10-22T03:04:37;0.52;;;0.52;;
30215;SDS011;17028;47.642;8.070;2022-10-22T03:09:38;1.40;;;1.10;;
30215;SDS011;17028;47.642;8.070;2022-10-22T03:14:39;0.73;;;0.70;;
30215;SDS011;17028;47.642;8.070;2022-10-22T03:19:40;1.00;;;0.90;;
30215;SDS011;17028;47.642;8.070;2022-10-22T03:24:43;1.65;;;1.00;;
30215;SDS011;17028;47.642;8.070;2022-10-22T03:29:46;1.55;;;1.20;;
30215;SDS011;17028;47.642;8.070;2022-10-22T03:34:49;2.13;;;1.45;;
30215;SDS011;17028;47.642;8.070;2022-10-22T03:39:51;1.83;;;1.30;;
30215;SDS011;17028;47.642;8.070;2022-10-22T03:44:53;2.03;;;1.40;;
30215;SDS011;17028;47.642;8.070;2022-10-22T03:49:54;1.95;;;1.50;;
30215;SDS011;17028;47.642;8.070;2022-10-22T03:54:55;1.13;;;1.02;;
30215;SDS011;17028;47.642;8.070;2022-10-22T03:59:56;2.63;;;1.95;;
30215;SDS011;17028;47.642;8.070;2022-10-22T04:04:57;4.00;;;2.90;;
30215;SDS011;17028;47.642;8.070;2022-10-22T04:09:58;2.80;;;2.15;;
30215;SDS011;17028;47.642;8.070;2022-10-22T04:14:59;3.05;;;2.25;;
30215;SDS011;17028;47.642;8.070;2022-10-22T04:20:01;3.63;;;2.55;;
30215;SDS011;17028;47.642;8.070;2022-10-22T04:25:03;2.75;;;2.03;;
30215;SDS011;17028;47.642;8.070;2022-10-22T04:30:04;2.63;;;1.60;;
30215;SDS011;17028;47.642;8.070;2022-10-22T04:35:06;2.60;;;1.65;;
30215;SDS011;17028;47.642;8.070;2022-10-22T04:40:07;1.60;;;1.38;;
30215;SDS011;17028;47.642;8.070;2022-10-22T04:45:09;1.40;;;1.20;;
30215;SDS011;17028;47.642;8.070;2022-10-22T04:50:10;2.70;;;1.73;;
30215;SDS011;17028;47.642;8.070;2022-10-22T04:55:11;1.98;;;1.40;;
30215;SDS011;17028;47.642;8.070;2022-10-22T05:00:12;1.83;;;1.30;;
30215;SDS011;17028;47.642;8.070;2022-10-22T05:05:13;2.60;;;1.80;;
30215;SDS011;17028;47.642;8.070;2022-10-22T05:10:14;3.47;;;1.52;;
30215;SDS011;17028;47.642;8.070;2022-10-22T05:15:15;2.22;;;1.60;;
30215;SDS011;17028;47.642;8.070;2022-10-22T05:20:16;2.72;;;1.85;;
30215;SDS011;17028;47.642;8.070;2022-10-22T05:25:17;4.47;;;2.22;;
30215;SDS011;17028;47.642;8.070;2022-10-22T05:30:18;4.93;;;2.65;;
30215;SDS011;17028;47.642;8.070;2022-10-22T05:35:20;5.63;;;3.28;;
30215;SDS011;17028;47.642;8.070;2022-10-22T05:40:21;6.15;;;3.63;;
30215;SDS011;17028;47.642;8.070;2022-10-22T05:45:22;12.10;;;4.68;;
30215;SDS011;17028;47.642;8.070;2022-10-22T05:50:23;16.05;;;6.13;;
30215;SDS011;17028;47.642;8.070;2022-10-22T05:55:24;9.48;;;4.93;;
30215;SDS011;17028;47.642;8.070;2022-10-22T06:00:25;11.68;;;4.32;;
30215;SDS011;17028;47.642;8.070;2022-10-22T06:05:26;23.40;;;8.20;;
30215;SDS011;17028;47.642;8.070;2022-10-22T06:10:27;13.95;;;5.40;;
30215;SDS011;17028;47.642;8.070;2022-10-22T06:15:28;18.67;;;5.22;;
30215;SDS011;17028;47.642;8.070;2022-10-22T06:20:29;10.35;;;4.18;;
30215;SDS011;17028;47.642;8.070;2022-10-22T06:25:30;17.45;;;5.07;;
30215;SDS011;17028;47.642;8.070;2022-10-22T06:30:31;21.70;;;6.47;;
30215;SDS011;17028;47.642;8.070;2022-10-22T06:35:32;46.90;;;18.77;;
30215;SDS011;17028;47.642;8.070;2022-10-22T06:40:33;20.77;;;10.13;;
30215;SDS011;17028;47.642;8.070;2022-10-22T06:45:34;9.30;;;5.80;;
30215;SDS011;17028;47.642;8.070;2022-10-22T06:50:35;7.55;;;4.97;;
30215;SDS011;17028;47.642;8.070;2022-10-22T06:55:36;7.30;;;4.70;;
30215;SDS011;17028;47.642;8.070;2022-10-22T07:00:37;6.20;;;3.53;;
30215;SDS011;17028;47.642;8.070;2022-10-22T07:05:39;5.75;;;2.80;;
30215;SDS011;17028;47.642;8.070;2022-10-22T07:10:40;6.43;;;2.38;;
30215;SDS011;17028;47.642;8.070;2022-10-22T07:15:41;13.85;;;3.58;;
30215;SDS011;17028;47.642;8.070;2022-10-22T07:20:42;16.75;;;4.40;;
30215;SDS011;17028;47.642;8.070;2022-10-22T07:25:43;14.30;;;3.00;;
30215;SDS011;17028;47.642;8.070;2022-10-22T07:30:44;18.75;;;4.57;;
30215;SDS011;17028;47.642;8.070;2022-10-22T07:35:45;10.38;;;3.20;;
30215;SDS011;17028;47.642;8.070;2022-10-22T07:40:46;5.82;;;2.38;;
30215;SDS011;17028;47.642;8.070;2022-10-22T07:45:47;11.50;;;3.70;;
30215;SDS011;17028;47.642;8.070;2022-10-22T07:50:49;9.07;;;2.58;;
30215;SDS011;17028;47.642;8.070;2022-10-22T07:55:51;7.25;;;1.75;;
30215;SDS011;17028;47.642;8.070;2022-10-22T08:00:56;7.63;;;1.60;;
30215;SDS011;17028;47.642;8.070;2022-10-22T08:06:00;2.95;;;1.15;;
30215;SDS011;17028;47.642;8.070;2022-10-22T08:11:01;2.90;;;0.80;;
30215;SDS011;17028;47.642;8.070;2022-10-22T08:16:03;1.92;;;1.02;;
30215;SDS011;17028;47.642;8.070;2022-10-22T08:21:04;2.45;;;1.70;;
30215;SDS011;17028;47.642;8.070;2022-10-22T08:26:05;3.40;;;2.30;;
30215;SDS011;17028;47.642;8.070;2022-10-22T08:31:06;3.35;;;2.10;;
30215;SDS011;17028;47.642;8.070;2022-10-22T08:36:07;5.18;;;2.47;;
30215;SDS011;17028;47.642;8.070;2022-10-22T08:41:11;3.20;;;1.70;;
30215;SDS011;17028;47.642;8.070;2022-10-22T08:46:22;3.92;;;1.15;;
30215;SDS011;17028;47.642;8.070;2022-10-22T08:51:34;1.38;;;0.90;;
30215;SDS011;17028;47.642;8.070;2022-10-22T08:56:41;25.02;;;4.07;;
30215;SDS011;17028;47.642;8.070;2022-10-22T09:01:45;5.85;;;1.00;;
30215;SDS011;17028;47.642;8.070;2022-10-22T09:06:48;2.33;;;1.10;;
30215;SDS011;17028;47.642;8.070;2022-10-22T09:11:50;2.72;;;0.82;;
30215;SDS011;17028;47.642;8.070;2022-10-22T09:22:25;2.40;;;0.70;;
30215;SDS011;17028;47.642;8.070;2022-10-22T09:27:32;1.17;;;0.60;;
30215;SDS011;17028;47.642;8.070;2022-10-22T09:32:33;2.50;;;0.70;;
30215;SDS011;17028;47.642;8.070;2022-10-22T09:37:35;3.63;;;0.90;;
30215;SDS011;17028;47.642;8.070;2022-10-22T09:42:36;1.65;;;0.65;;
30215;SDS011;17028;47.642;8.070;2022-10-22T09:47:38;4.13;;;1.20;;
30215;SDS011;17028;47.642;8.070;2022-10-22T09:52:41;3.00;;;0.93;;
30215;SDS011;17028;47.642;8.070;2022-10-22T09:57:42;2.65;;;1.00;;
30215;SDS011;17028;47.642;8.070;2022-10-22T10:02:43;2.30;;;0.93;;
30215;SDS011;17028;47.642;8.070;2022-10-22T10:07:44;2.33;;;0.90;;
30215;SDS011;17028;47.642;8.070;2022-10-22T10:12:50;5.18;;;1.10;;
30215;SDS011;17028;47.642;8.070;2022-10-22T10:28:49;3.25;;;1.30;;
30215;SDS011;17028;47.642;8.070;2022-10-22T10:34:13;1.55;;;0.90;;
30215;SDS011;17028;47.642;8.070;2022-10-22T10:50:23;2.92;;;1.00;;
30215;SDS011;17028;47.642;8.070;2022-10-22T11:00:34;3.22;;;0.90;;
30215;SDS011;17028;47.642;8.070;2022-10-22T11:05:53;1.30;;;0.70;;
30215;SDS011;17028;47.642;8.070;2022-10-22T11:11:17;4.75;;;1.08;;
30215;SDS011;17028;47.642;8.070;2022-10-22T11:21:55;3.88;;;1.00;;
30215;SDS011;17028;47.642;8.070;2022-10-22T11:32:11;3.40;;;1.00;;
30215;SDS011;17028;47.642;8.070;2022-10-22T11:37:18;2.50;;;1.20;;
30215;SDS011;17028;47.642;8.070;2022-10-22T11:42:23;2.03;;;0.90;;
30215;SDS011;17028;47.642;8.070;2022-10-22T11:47:52;2.38;;;0.90;;
30215;SDS011;17028;47.642;8.070;2022-10-22T12:03:40;3.15;;;1.10;;
30215;SDS011;17028;47.642;8.070;2022-10-22T12:19:45;1.48;;;0.75;;
30215;SDS011;17028;47.642;8.070;2022-10-22T12:24:50;2.08;;;0.80;;
30215;SDS011;17028;47.642;8.070;2022-10-22T12:29:54;2.08;;;0.95;;
30215;SDS011;17028;47.642;8.070;2022-10-22T12:35:02;5.10;;;0.82;;
30215;SDS011;17028;47.642;8.070;2022-10-22T12:40:15;4.18;;;1.00;;
30215;SDS011;17028;47.642;8.070;2022-10-22T12:45:19;2.85;;;1.05;;
30215;SDS011;17028;47.642;8.070;2022-10-22T12:50:28;2.17;;;0.90;;
30215;SDS011;17028;47.642;8.070;2022-10-22T12:55:32;1.77;;;0.90;;
30215;SDS011;17028;47.642;8.070;2022-10-22T13:00:34;1.88;;;0.90;;
30215;SDS011;17028;47.642;8.070;2022-10-22T13:05:35;2.55;;;1.00;;
30215;SDS011;17028;47.642;8.070;2022-10-22T13:10:39;1.90;;;1.00;;
30215;SDS011;17028;47.642;8.070;2022-10-22T13:15:48;3.47;;;1.10;;
30215;SDS011;17028;47.642;8.070;2022-10-22T13:25:58;2.70;;;0.85;;
30215;SDS011;17028;47.642;8.070;2022-10-22T13:31:20;2.58;;;1.15;;
30215;SDS011;17028;47.642;8.070;2022-10-22T13:36:24;4.25;;;0.80;;
30215;SDS011;17028;47.642;8.070;2022-10-22T13:41:26;3.28;;;1.00;;
30215;SDS011;17028;47.642;8.070;2022-10-22T13:46:30;2.80;;;1.00;;
30215;SDS011;17028;47.642;8.070;2022-10-22T13:51:32;2.63;;;0.82;;
30215;SDS011;17028;47.642;8.070;2022-10-22T13:56:34;2.25;;;0.90;;
30215;SDS011;17028;47.642;8.070;2022-10-22T14:01:35;2.17;;;0.82;;
30215;SDS011;17028;47.642;8.070;2022-10-22T14:06:37;1.73;;;0.80;;
30215;SDS011;17028;47.642;8.070;2022-10-22T14:11:38;3.22;;;1.20;;
30215;SDS011;17028;47.642;8.070;2022-10-22T14:16:39;2.15;;;1.00;;
30215;SDS011;17028;47.642;8.070;2022-10-22T14:21:40;4.00;;;1.00;;
30215;SDS011;17028;47.642;8.070;2022-10-22T14:26:41;1.92;;;0.85;;
30215;SDS011;17028;47.642;8.070;2022-10-22T14:31:42;2.17;;;0.95;;
30215;SDS011;17028;47.642;8.070;2022-10-22T14:36:44;6.00;;;1.02;;
30215;SDS011;17028;47.642;8.070;2022-10-22T14:41:45;2.00;;;0.80;;
30215;SDS011;17028;47.642;8.070;2022-10-22T14:46:46;2.35;;;0.90;;
30215;SDS011;17028;47.642;8.070;2022-10-22T14:51:48;1.92;;;0.70;;
30215;SDS011;17028;47.642;8.070;2022-10-22T14:56:49;2.95;;;1.02;;
30215;SDS011;17028;47.642;8.070;2022-10-22T15:01:50;1.83;;;0.77;;
30215;SDS011;17028;47.642;8.070;2022-10-22T15:06:51;2.47;;;0.80;;
30215;SDS011;17028;47.642;8.070;2022-10-22T15:11:55;3.83;;;0.90;;
30215;SDS011;17028;47.642;8.070;2022-10-22T15:16:57;1.70;;;0.80;;
30215;SDS011;17028;47.642;8.070;2022-10-22T15:21:58;1.13;;;0.70;;
30215;SDS011;17028;47.642;8.070;2022-10-22T15:26:59;3.50;;;0.85;;
30215;SDS011;17028;47.642;8.070;2022-10-22T15:32:02;1.77;;;0.88;;
30215;SDS011;17028;47.642;8.070;2022-10-22T15:37:05;1.60;;;0.95;;
30215;SDS011;17028;47.642;8.070;2022-10-22T15:42:08;2.90;;;0.90;;
30215;SDS011;17028;47.642;8.070;2022-10-22T15:47:09;2.20;;;0.98;;
30215;SDS011;17028;47.642;8.070;2022-10-22T15:52:10;1.27;;;0.98;;
30215;SDS011;17028;47.642;8.070;2022-10-22T15:57:12;1.77;;;1.10;;
30215;SDS011;17028;47.642;8.070;2022-10-22T16:02:13;1.58;;;1.05;;
30215;SDS011;17028;47.642;8.070;2022-10-22T16:07:15;1.80;;;1.00;;
30215;SDS011;17028;47.642;8.070;2022-10-22T16:12:16;1.48;;;0.88;;
30215;SDS011;17028;47.642;8.070;2022-10-22T16:17:17;2.83;;;1.95;;
30215;SDS011;17028;47.642;8.070;2022-10-22T16:22:18;4.95;;;2.90;;
30215;SDS011;17028;47.642;8.070;2022-10-22T16:27:19;5.45;;;3.58;;
30215;SDS011;17028;47.642;8.070;2022-10-22T16:32:20;3.85;;;2.25;;
30215;SDS011;17028;47.642;8.070;2022-10-22T16:37:22;2.95;;;1.80;;
30215;SDS011;17028;47.642;8.070;2022-10-22T16:42:24;2.50;;;1.75;;
30215;SDS011;17028;47.642;8.070;2022-10-22T16:47:25;3.78;;;2.50;;
30215;SDS011;17028;47.642;8.070;2022-10-22T16:52:26;6.75;;;3.55;;
30215;SDS011;17028;47.642;8.070;2022-10-22T16:57:27;4.88;;;2.63;;
30215;SDS011;17028;47.642;8.070;2022-10-22T17:02:28;5.35;;;2.60;;
30215;SDS011;17028;47.642;8.070;2022-10-22T17:07:29;5.20;;;1.58;;
30215;SDS011;17028;47.642;8.070;2022-10-22T17:12:30;5.55;;;2.97;;
30215;SDS011;17028;47.642;8.070;2022-10-22T17:17:34;4.47;;;2.80;;
30215;SDS011;17028;47.642;8.070;2022-10-22T17:22:36;5.10;;;2.85;;
30215;SDS011;17028;47.642;8.070;2022-10-22T17:27:37;6.03;;;3.00;;
30215;SDS011;17028;47.642;8.070;2022-10-22T17:32:38;5.75;;;3.28;;
30215;SDS011;17028;47.642;8.070;2022-10-22T17:37:39;5.50;;;3.40;;
30215;SDS011;17028;47.642;8.070;2022-10-22T17:42:40;5.93;;;3.58;;
30215;SDS011;17028;47.642;8.070;2022-10-22T17:47:41;4.32;;;2.90;;
30215;SDS011;17028;47.642;8.070;2022-10-22T17:52:42;4.57;;;2.58;;
30215;SDS011;17028;47.642;8.070;2022-10-22T17:57:43;4.45;;;2.65;;
30215;SDS011;17028;47.642;8.070;2022-10-22T18:02:44;4.70;;;3.20;;
30215;SDS011;17028;47.642;8.070;2022-10-22T18:07:45;5.22;;;3.58;;
30215;SDS011;17028;47.642;8.070;2022-10-22T18:12:46;5.30;;;3.35;;
30215;SDS011;17028;47.642;8.070;2022-10-22T18:17:47;5.40;;;2.90;;
30215;SDS011;17028;47.642;8.070;2022-10-22T18:22:49;11.95;;;6.32;;
30215;SDS011;17028;47.642;8.070;2022-10-22T18:27:52;17.95;;;9.43;;
30215;SDS011;17028;47.642;8.070;2022-10-22T18:32:53;14.15;;;7.63;;
30215;SDS011;17028;47.642;8.070;2022-10-22T18:37:55;24.35;;;10.98;;
30215;SDS011;17028;47.642;8.070;2022-10-22T18:42:56;41.33;;;19.92;;
30215;SDS011;17028;47.642;8.070;2022-10-22T18:47:57;25.60;;;14.07;;
30215;SDS011;17028;47.642;8.070;2022-10-22T18:53:00;28.15;;;14.68;;
30215;SDS011;17028;47.642;8.070;2022-10-22T18:58:01;18.42;;;9.30;;
30215;SDS011;17028;47.642;8.070;2022-10-22T19:03:02;15.40;;;8.38;;
30215;SDS011;17028;47.642;8.070;2022-10-22T19:08:03;6.75;;;3.70;;
30215;SDS011;17028;47.642;8.070;2022-10-22T19:13:05;5.60;;;2.80;;
30215;SDS011;17028;47.642;8.070;2022-10-22T19:18:06;4.93;;;2.45;;
30215;SDS011;17028;47.642;8.070;2022-10-22T19:23:07;4.65;;;2.30;;
30215;SDS011;17028;47.642;8.070;2022-10-22T19:28:08;3.90;;;2.45;;
30215;SDS011;17028;47.642;8.070;2022-10-22T19:33:09;6.45;;;4.03;;
30215;SDS011;17028;47.642;8.070;2022-10-22T19:38:10;4.30;;;2.55;;
30215;SDS011;17028;47.642;8.070;2022-10-22T19:43:11;2.97;;;1.77;;
30215;SDS011;17028;47.642;8.070;2022-10-22T19:48:12;4.68;;;2.20;;
30215;SDS011;17028;47.642;8.070;2022-10-22T19:53:13;2.88;;;1.83;;
30215;SDS011;17028;47.642;8.070;2022-10-22T19:58:14;3.00;;;1.70;;
30215;SDS011;17028;47.642;8.070;2022-10-22T20:03:15;2.40;;;1.50;;
30215;SDS011;17028;47.642;8.070;2022-10-22T20:08:17;2.05;;;1.20;;
30215;SDS011;17028;47.642;8.070;2022-10-22T20:13:18;2.95;;;1.50;;
30215;SDS011;17028;47.642;8.070;2022-10-22T20:18:19;3.45;;;1.30;;
30215;SDS011;17028;47.642;8.070;2022-10-22T20:23:22;2.33;;;1.30;;
30215;SDS011;17028;47.642;8.070;2022-10-22T20:28:23;2.65;;;1.20;;
30215;SDS011;17028;47.642;8.070;2022-10-22T20:33:24;2.55;;;1.50;;
30215;SDS011;17028;47.642;8.070;2022-10-22T20:38:25;3.13;;;1.40;;
30215;SDS011;17028;47.642;8.070;2022-10-22T20:43:26;4.10;;;1.50;;
30215;SDS011;17028;47.642;8.070;2022-10-22T20:48:27;2.28;;;1.10;;
30215;SDS011;17028;47.642;8.070;2022-10-22T20:53:30;2.10;;;1.10;;
30215;SDS011;17028;47.642;8.070;2022-10-22T20:58:31;1.98;;;1.00;;
30215;SDS011;17028;47.642;8.070;2022-10-22T21:03:33;2.92;;;1.17;;
30215;SDS011;17028;47.642;8.070;2022-10-22T21:08:34;4.40;;;1.40;;
30215;SDS011;17028;47.642;8.070;2022-10-22T21:13:35;3.33;;;1.23;;
30215;SDS011;17028;47.642;8.070;2022-10-22T21:18:36;4.40;;;1.40;;
30215;SDS011;17028;47.642;8.070;2022-10-22T21:23:37;2.78;;;1.50;;
30215;SDS011;17028;47.642;8.070;2022-10-22T21:28:39;4.43;;;1.40;;
30215;SDS011;17028;47.642;8.070;2022-10-22T21:33:40;4.05;;;1.30;;
30215;SDS011;17028;47.642;8.070;2022-10-22T21:38:41;2.20;;;1.20;;
30215;SDS011;17028;47.642;8.070;2022-10-22T21:43:42;2.50;;;0.95;;
30215;SDS011;17028;47.642;8.070;2022-10-22T21:48:44;2.03;;;1.10;;
30215;SDS011;17028;47.642;8.070;2022-10-22T21:53:46;2.80;;;0.90;;
30215;SDS011;17028;47.642;8.070;2022-10-22T21:58:47;1.42;;;0.80;;
30215;SDS011;17028;47.642;8.070;2022-10-22T22:03:48;2.55;;;0.90;;
30215;SDS011;17028;47.642;8.070;2022-10-22T22:08:51;2.80;;;1.20;;
30215;SDS011;17028;47.642;8.070;2022-10-22T22:13:54;2.67;;;1.10;;
30215;SDS011;17028;47.642;8.070;2022-10-22T22:19:00;1.80;;;0.95;;
30215;SDS011;17028;47.642;8.070;2022-10-22T22:24:04;2.35;;;1.05;;
30215;SDS011;17028;47.642;8.070;2022-10-22T22:29:06;2.03;;;0.70;;
30215;SDS011;17028;47.642;8.070;2022-10-22T22:34:09;1.10;;;0.77;;
30215;SDS011;17028;47.642;8.070;2022-10-22T22:39:13;1.65;;;0.85;;
30215;SDS011;17028;47.642;8.070;2022-10-22T22:44:16;1.33;;;0.88;;
30215;SDS011;17028;47.642;8.070;2022-10-22T22:49:17;1.48;;;0.90;;
30215;SDS011;17028;47.642;8.070;2022-10-22T22:54:18;4.03;;;1.00;;
30215;SDS011;17028;47.642;8.070;2022-10-22T22:59:19;1.48;;;1.00;;
30215;SDS011;17028;47.642;8.070;2022-10-22T23:04:20;1.52;;;0.90;;
30215;SDS011;17028;47.642;8.070;2022-10-22T23:09:24;1.38;;;0.80;;
30215;SDS011;17028;47.642;8.070;2022-10-22T23:14:25;3.30;;;1.00;;
30215;SDS011;17028;47.642;8.070;2022-10-22T23:19:26;1.70;;;0.85;;
30215;SDS011;17028;47.642;8.070;2022-10-22T23:24:27;2.33;;;0.80;;
30215;SDS011;17028;47.642;8.070;2022-10-22T23:29:30;2.58;;;0.90;;
30215;SDS011;17028;47.642;8.070;2022-10-22T23:34:33;1.63;;;0.80;;
30215;SDS011;17028;47.642;8.070;2022-10-22T23:39:34;1.92;;;0.90;;
30215;SDS011;17028;47.642;8.070;2022-10-22T23:44:35;1.40;;;0.90;;
30215;SDS011;17028;47.642;8.070;2022-10-22T23:49:36;1.20;;;0.80;;
30215;SDS011;17028;47.642;8.070;2022-10-22T23:54:37;1.63;;;0.80;;
30215;SDS011;17028;47.642;8.070;2022-10-22T23:59:38;2.35;;;0.80;;
